Aviation Digital Data Service (ADDS)

Output produced by METARs form (2252 UTC 15 February 2019)
found at http://www.aviationweather.gov/metar/data/
 
METAR text: PANC 152153Z 30006KT 10SM FEW004 M11/M17 A3006 RMK AO2 SLP185 T11111167
Conditions at: PANC (ANCHORAGE INTL , AK, US) observed 2153 UTC 15 February 2019
Temperature: -11.1°C (12°F)
Dewpoint: -16.7°C ( 2°F) [RH = 63%]
Pressure (altimeter): 30.06 inches Hg (1018.0 mb)
[Sea-level pressure: 1018.5 mb]
Winds: from the WNW (300 degrees) at 7 MPH (6 knots; 3.1 m/s)
Visibility: 10 or more miles (16+ km)
Ceiling: at least 12,000 feet AGL
Clouds: few clouds at 400 feet AGL
Weather: no significant weather observed at this time

METAR text: PANC 152053Z 00000KT 10SM FEW002 M11/M17 A3004 RMK AO2 SLP177 FG BNK DSNT NE T11111172 51003
Conditions at: PANC (ANCHORAGE INTL , AK, US) observed 2053 UTC 15 February 2019
Temperature: -11.1°C (12°F)
Dewpoint: -17.2°C ( 1°F) [RH = 61%]
Pressure (altimeter): 30.04 inches Hg (1017.4 mb)
[Sea-level pressure: 1017.7 mb]
Winds: calm
Visibility: 10 or more miles (16+ km)
Ceiling: at least 12,000 feet AGL
Clouds: few clouds at 200 feet AGL
Weather: no significant weather observed at this time

METAR text: PANC 152039Z 30003KT 10SM FEW002 M11/M17 A3004 RMK AO2 FG BNK DSNT NE T11061167
Conditions at: PANC (ANCHORAGE INTL , AK, US) observed 2039 UTC 15 February 2019
Temperature: -10.6°C (13°F)
Dewpoint: -16.7°C ( 2°F) [RH = 61%]
Pressure (altimeter): 30.04 inches Hg (1017.4 mb)
Winds: from the WNW (300 degrees) at 3 MPH (3 knots; 1.5 m/s)
Visibility: 10 or more miles (16+ km)
Ceiling: at least 12,000 feet AGL
Clouds: few clouds at 200 feet AGL
Weather: no significant weather observed at this time

METAR text: PANC 151953Z 00000KT 10SM CLR M12/M17 A3003 RMK AO2 SLP175 T11221167
Conditions at: PANC (ANCHORAGE INTL , AK, US) observed 1953 UTC 15 February 2019
Temperature: -12.2°C (10°F)
Dewpoint: -16.7°C ( 2°F) [RH = 69%]
Pressure (altimeter): 30.03 inches Hg (1017.0 mb)
[Sea-level pressure: 1017.5 mb]
Winds: calm
Visibility: 10 or more miles (16+ km)
Ceiling: at least 12,000 feet AGL
Clouds: sky clear below 12,000 feet AGL
Weather: no significant weather observed at this time

METAR text: PANC 151853Z 08003KT 10SM CLR M16/M19 A3004 RMK AO2 SLP177 T11611189
Conditions at: PANC (ANCHORAGE INTL , AK, US) observed 1853 UTC 15 February 2019
Temperature: -16.1°C ( 3°F)
Dewpoint: -18.9°C (-2°F) [RH = 79%]
Pressure (altimeter): 30.04 inches Hg (1017.4 mb)
[Sea-level pressure: 1017.7 mb]
Winds: from the E (80 degrees) at 3 MPH (3 knots; 1.5 m/s)
Visibility: 10 or more miles (16+ km)
Ceiling: at least 12,000 feet AGL
Clouds: sky clear below 12,000 feet AGL
Weather: no significant weather observed at this time

METAR text: PANC 151753Z 00000KT 10SM CLR M17/M20 A3003 RMK AO2 SLP174 4/015 I1000 I6000 T11721200 11111 21178 53002
Conditions at: PANC (ANCHORAGE INTL , AK, US) observed 1753 UTC 15 February 2019
Temperature: -17.2°C ( 1°F)
Dewpoint: -20.0°C (-4°F) [RH = 79%]
Pressure (altimeter): 30.03 inches Hg (1017.0 mb)
[Sea-level pressure: 1017.4 mb]
Winds: calm
Visibility: 10 or more miles (16+ km)
Ceiling: at least 12,000 feet AGL
Clouds: sky clear below 12,000 feet AGL
Weather: no significant weather observed at this time

METAR text: PANC 151653Z 16003KT 10SM CLR M17/M20 A3002 RMK AO2 SLP171 T11721200
Conditions at: PANC (ANCHORAGE INTL , AK, US) observed 1653 UTC 15 February 2019
Temperature: -17.2°C ( 1°F)
Dewpoint: -20.0°C (-4°F) [RH = 79%]
Pressure (altimeter): 30.02 inches Hg (1016.7 mb)
[Sea-level pressure: 1017.1 mb]
Winds: from the SSE (160 degrees) at 3 MPH (3 knots; 1.5 m/s)
Visibility: 10 or more miles (16+ km)
Ceiling: at least 12,000 feet AGL
Clouds: sky clear below 12,000 feet AGL
Weather: no significant weather observed at this time

METAR text: PANC 151553Z 31004KT 10SM CLR M14/M19 A3002 RMK AO2 SLP169 T11441189
Conditions at: PANC (ANCHORAGE INTL , AK, US) observed 1553 UTC 15 February 2019
Temperature: -14.4°C ( 6°F)
Dewpoint: -18.9°C (-2°F) [RH = 69%]
Pressure (altimeter): 30.02 inches Hg (1016.7 mb)
[Sea-level pressure: 1016.9 mb]
Winds: from the NW (310 degrees) at 5 MPH (4 knots; 2.1 m/s)
Visibility: 10 or more miles (16+ km)
Ceiling: at least 12,000 feet AGL
Clouds: sky clear below 12,000 feet AGL
Weather: no significant weather observed at this time

METAR text: PANC 151453Z 33004KT 10SM SCT230 M13/M19 A3002 RMK AO2 SLP171 I3000 T11281194 53010
Conditions at: PANC (ANCHORAGE INTL , AK, US) observed 1453 UTC 15 February 2019
Temperature: -12.8°C ( 9°F)
Dewpoint: -19.4°C (-3°F) [RH = 58%]
Pressure (altimeter): 30.02 inches Hg (1016.7 mb)
[Sea-level pressure: 1017.1 mb]
Winds: from the NNW (330 degrees) at 5 MPH (4 knots; 2.1 m/s)
Visibility: 10 or more miles (16+ km)
Ceiling: at least 12,000 feet AGL
Clouds: scattered clouds at 23000 feet AGL
Weather: no significant weather observed at this time

METAR text: PANC 151353Z 00000KT 10SM SCT230 M13/M17 A3001 RMK AO2 SLP166 I1000 T11281172
Conditions at: PANC (ANCHORAGE INTL , AK, US) observed 1353 UTC 15 February 2019
Temperature: -12.8°C ( 9°F)
Dewpoint: -17.2°C ( 1°F) [RH = 70%]
Pressure (altimeter): 30.01 inches Hg (1016.3 mb)
[Sea-level pressure: 1016.6 mb]
Winds: calm
Visibility: 10 or more miles (16+ km)
Ceiling: at least 12,000 feet AGL
Clouds: scattered clouds at 23000 feet AGL
Weather: no significant weather observed at this time

METAR text: PANC 151253Z 00000KT 10SM SCT200 M16/M19 A3000 RMK AO2 SLP164 T11611194
Conditions at: PANC (ANCHORAGE INTL , AK, US) observed 1253 UTC 15 February 2019
Temperature: -16.1°C ( 3°F)
Dewpoint: -19.4°C (-3°F) [RH = 76%]
Pressure (altimeter): 30.00 inches Hg (1016.0 mb)
[Sea-level pressure: 1016.4 mb]
Winds: calm
Visibility: 10 or more miles (16+ km)
Ceiling: at least 12,000 feet AGL
Clouds: scattered clouds at 20000 feet AGL
Weather: no significant weather observed at this time

METAR text: PANC 151153Z 12003KT 10SM CLR M16/M18 A2999 RMK AO2 SLP160 T11561178 11089 21156 55001
Conditions at: PANC (ANCHORAGE INTL , AK, US) observed 1153 UTC 15 February 2019
Temperature: -15.6°C ( 4°F)
Dewpoint: -17.8°C (-0°F) [RH = 83%]
Pressure (altimeter): 29.99 inches Hg (1015.7 mb)
[Sea-level pressure: 1016.0 mb]
Winds: from the ESE (120 degrees) at 3 MPH (3 knots; 1.5 m/s)
Visibility: 10 or more miles (16+ km)
Ceiling: at least 12,000 feet AGL
Clouds: sky clear below 12,000 feet AGL
Weather: no significant weather observed at this time

METAR text: PANC 151053Z VRB04KT 10SM CLR M12/M16 A2999 RMK AO2 SLP158 T11171156
Conditions at: PANC (ANCHORAGE INTL , AK, US) observed 1053 UTC 15 February 2019
Temperature: -11.7°C (11°F)
Dewpoint: -15.6°C ( 4°F) [RH = 73%]
Pressure (altimeter): 29.99 inches Hg (1015.7 mb)
[Sea-level pressure: 1015.8 mb]
Winds: variable direction winds at 5 MPH (4 knots; 2.1 m/s)
Visibility: 10 or more miles (16+ km)
Ceiling: at least 12,000 feet AGL
Clouds: sky clear below 12,000 feet AGL
Weather: no significant weather observed at this time

METAR text: PANC 150953Z 00000KT 10SM CLR M14/M18 A2998 RMK AO2 SLP155 T11391178
Conditions at: PANC (ANCHORAGE INTL , AK, US) observed 0953 UTC 15 February 2019
Temperature: -13.9°C ( 7°F)
Dewpoint: -17.8°C (-0°F) [RH = 72%]
Pressure (altimeter): 29.98 inches Hg (1015.3 mb)
[Sea-level pressure: 1015.5 mb]
Winds: calm
Visibility: 10 or more miles (16+ km)
Ceiling: at least 12,000 feet AGL
Clouds: sky clear below 12,000 feet AGL
Weather: no significant weather observed at this time

METAR text: PANC 150853Z VRB03KT 10SM CLR M13/M17 A2999 RMK AO2 SLP160 T11281167 410561150 52008
Conditions at: PANC (ANCHORAGE INTL , AK, US) observed 0853 UTC 15 February 2019
Temperature: -12.8°C ( 9°F)
Dewpoint: -16.7°C ( 2°F) [RH = 73%]
Pressure (altimeter): 29.99 inches Hg (1015.7 mb)
[Sea-level pressure: 1016.0 mb]
Winds: variable direction winds at 3 MPH (3 knots; 1.5 m/s)
Visibility: 10 or more miles (16+ km)
Ceiling: at least 12,000 feet AGL
Clouds: sky clear below 12,000 feet AGL
Weather: no significant weather observed at this time

METAR text: PANC 150753Z 00000KT 10SM SCT230 M13/M18 A2999 RMK AO2 SLP161 T11331178
Conditions at: PANC (ANCHORAGE INTL , AK, US) observed 0753 UTC 15 February 2019
Temperature: -13.3°C ( 8°F)
Dewpoint: -17.8°C (-0°F) [RH = 69%]
Pressure (altimeter): 29.99 inches Hg (1015.7 mb)
[Sea-level pressure: 1016.1 mb]
Winds: calm
Visibility: 10 or more miles (16+ km)
Ceiling: at least 12,000 feet AGL
Clouds: scattered clouds at 23000 feet AGL
Weather: no significant weather observed at this time

METAR text: PANC 150653Z 00000KT 10SM BKN230 M11/M17 A2997 RMK AO2 SLP153 T11111172
Conditions at: PANC (ANCHORAGE INTL , AK, US) observed 0653 UTC 15 February 2019
Temperature: -11.1°C (12°F)
Dewpoint: -17.2°C ( 1°F) [RH = 61%]
Pressure (altimeter): 29.97 inches Hg (1015.0 mb)
[Sea-level pressure: 1015.3 mb]
Winds: calm
Visibility: 10 or more miles (16+ km)
Ceiling: 23000 feet AGL
Clouds: broken clouds at 23000 feet AGL
Weather: no significant weather observed at this time

METAR text: PANC 150553Z 32003KT 10SM BKN230 M12/M17 A2997 RMK AO2 SLP153 4/015 T11171167 11056 21133 55011
Conditions at: PANC (ANCHORAGE INTL , AK, US) observed 0553 UTC 15 February 2019
Temperature: -11.7°C (11°F)
Dewpoint: -16.7°C ( 2°F) [RH = 66%]
Pressure (altimeter): 29.97 inches Hg (1015.0 mb)
[Sea-level pressure: 1015.3 mb]
Winds: from the NW (320 degrees) at 3 MPH (3 knots; 1.5 m/s)
Visibility: 10 or more miles (16+ km)
Ceiling: 23000 feet AGL
Clouds: broken clouds at 23000 feet AGL
Weather: no significant weather observed at this time

METAR text: PANC 150453Z 22005KT 10SM BKN230 M09/M16 A2997 RMK AO2 SLP151 T10941161
Conditions at: PANC (ANCHORAGE INTL , AK, US) observed 0453 UTC 15 February 2019
Temperature: -9.4°C (15°F)
Dewpoint: -16.1°C ( 3°F) [RH = 58%]
Pressure (altimeter): 29.97 inches Hg (1015.0 mb)
[Sea-level pressure: 1015.1 mb]
Winds: from the SW (220 degrees) at 6 MPH (5 knots; 2.6 m/s)
Visibility: 10 or more miles (16+ km)
Ceiling: 23000 feet AGL
Clouds: broken clouds at 23000 feet AGL
Weather: no significant weather observed at this time

METAR text: PANC 150353Z 17004KT 10SM SCT200 M13/M17 A2998 RMK AO2 SLP157 T11281167
Conditions at: PANC (ANCHORAGE INTL , AK, US) observed 0353 UTC 15 February 2019
Temperature: -12.8°C ( 9°F)
Dewpoint: -16.7°C ( 2°F) [RH = 73%]
Pressure (altimeter): 29.98 inches Hg (1015.3 mb)
[Sea-level pressure: 1015.7 mb]
Winds: from the S (170 degrees) at 5 MPH (4 knots; 2.1 m/s)
Visibility: 10 or more miles (16+ km)
Ceiling: at least 12,000 feet AGL
Clouds: scattered clouds at 20000 feet AGL
Weather: no significant weather observed at this time

METAR text: PANC 150253Z 00000KT 10SM FEW200 M09/M16 A3000 RMK AO2 SLP164 T10941161 58009
Conditions at: PANC (ANCHORAGE INTL , AK, US) observed 0253 UTC 15 February 2019
Temperature: -9.4°C (15°F)
Dewpoint: -16.1°C ( 3°F) [RH = 58%]
Pressure (altimeter): 30.00 inches Hg (1016.0 mb)
[Sea-level pressure: 1016.4 mb]
Winds: calm
Visibility: 10 or more miles (16+ km)
Ceiling: at least 12,000 feet AGL
Clouds: few clouds at 20000 feet AGL
Weather: no significant weather observed at this time

METAR text: PANC 150153Z 14005KT 10SM FEW040 FEW200 M08/M16 A3003 RMK AO2 SLP173 T10781161
Conditions at: PANC (ANCHORAGE INTL , AK, US) observed 0153 UTC 15 February 2019
Temperature: -7.8°C (18°F)
Dewpoint: -16.1°C ( 3°F) [RH = 51%]
Pressure (altimeter): 30.03 inches Hg (1017.0 mb)
[Sea-level pressure: 1017.3 mb]
Winds: from the SE (140 degrees) at 6 MPH (5 knots; 2.6 m/s)
Visibility: 10 or more miles (16+ km)
Ceiling: at least 12,000 feet AGL
Clouds: few clouds at 4000 feet AGL
few clouds at 20000 feet AGL
Weather: no significant weather observed at this time

METAR text: PANC 150053Z 00000KT 10SM FEW200 M06/M16 A3004 RMK AO2 SLP176 T10611161
Conditions at: PANC (ANCHORAGE INTL , AK, US) observed 0053 UTC 15 February 2019
Temperature: -6.1°C (21°F)
Dewpoint: -16.1°C ( 3°F) [RH = 45%]
Pressure (altimeter): 30.04 inches Hg (1017.4 mb)
[Sea-level pressure: 1017.6 mb]
Winds: calm
Visibility: 10 or more miles (16+ km)
Ceiling: at least 12,000 feet AGL
Clouds: few clouds at 20000 feet AGL
Weather: no significant weather observed at this time

METAR text: PANC 142353Z 34006KT 10SM FEW200 M06/M16 A3003 RMK AO2 SLP173 4/015 T10611161 11061 21106 56003
Conditions at: PANC (ANCHORAGE INTL , AK, US) observed 2353 UTC 14 February 2019
Temperature: -6.1°C (21°F)
Dewpoint: -16.1°C ( 3°F) [RH = 45%]
Pressure (altimeter): 30.03 inches Hg (1017.0 mb)
[Sea-level pressure: 1017.3 mb]
Winds: from the NNW (340 degrees) at 7 MPH (6 knots; 3.1 m/s)
Visibility: 10 or more miles (16+ km)
Ceiling: at least 12,000 feet AGL
Clouds: few clouds at 20000 feet AGL
Weather: no significant weather observed at this time

METAR text: PANC 142253Z 34009KT 10SM CLR M07/M17 A3004 RMK AO2 SLP174 T10671167
Conditions at: PANC (ANCHORAGE INTL , AK, US) observed 2253 UTC 14 February 2019
Temperature: -6.7°C (20°F)
Dewpoint: -16.7°C ( 2°F) [RH = 45%]
Pressure (altimeter): 30.04 inches Hg (1017.4 mb)
[Sea-level pressure: 1017.4 mb]
Winds: from the NNW (340 degrees) at 10 MPH (9 knots; 4.6 m/s)
Visibility: 10 or more miles (16+ km)
Ceiling: at least 12,000 feet AGL
Clouds: sky clear below 12,000 feet AGL
Weather: no significant weather observed at this time

METAR text: PANC 142153Z 35011KT 10SM CLR M08/M17 A3002 RMK AO2 SLP168 T10781167
Conditions at: PANC (ANCHORAGE INTL , AK, US) observed 2153 UTC 14 February 2019
Temperature: -7.8°C (18°F)
Dewpoint: -16.7°C ( 2°F) [RH = 49%]
Pressure (altimeter): 30.02 inches Hg (1016.7 mb)
[Sea-level pressure: 1016.8 mb]
Winds: from the N (350 degrees) at 13 MPH (11 knots; 5.7 m/s)
Visibility: 10 or more miles (16+ km)
Ceiling: at least 12,000 feet AGL
Clouds: sky clear below 12,000 feet AGL
Weather: no significant weather observed at this time

METAR text: PANC 142053Z 35013KT 10SM CLR M09/M17 A3004 RMK AO2 SLP175 T10891172 58004
Conditions at: PANC (ANCHORAGE INTL , AK, US) observed 2053 UTC 14 February 2019
Temperature: -8.9°C (16°F)
Dewpoint: -17.2°C ( 1°F) [RH = 51%]
Pressure (altimeter): 30.04 inches Hg (1017.4 mb)
[Sea-level pressure: 1017.5 mb]
Winds: from the N (350 degrees) at 15 MPH (13 knots; 6.7 m/s)
Visibility: 10 or more miles (16+ km)
Ceiling: at least 12,000 feet AGL
Clouds: sky clear below 12,000 feet AGL
Weather: no significant weather observed at this time

METAR text: PANC 141953Z 35009KT 10SM CLR M09/M17 A3005 RMK AO2 SLP178 T10941172
Conditions at: PANC (ANCHORAGE INTL , AK, US) observed 1953 UTC 14 February 2019
Temperature: -9.4°C (15°F)
Dewpoint: -17.2°C ( 1°F) [RH = 53%]
Pressure (altimeter): 30.05 inches Hg (1017.7 mb)
[Sea-level pressure: 1017.8 mb]
Winds: from the N (350 degrees) at 10 MPH (9 knots; 4.6 m/s)
Visibility: 10 or more miles (16+ km)
Ceiling: at least 12,000 feet AGL
Clouds: sky clear below 12,000 feet AGL
Weather: no significant weather observed at this time

METAR text: PANC 141853Z VRB03KT 10SM CLR M10/M18 A3005 RMK AO2 SLP181 T11001178
Conditions at: PANC (ANCHORAGE INTL , AK, US) observed 1853 UTC 14 February 2019
Temperature: -10.0°C (14°F)
Dewpoint: -17.8°C (-0°F) [RH = 53%]
Pressure (altimeter): 30.05 inches Hg (1017.7 mb)
[Sea-level pressure: 1018.1 mb]
Winds: variable direction winds at 3 MPH (3 knots; 1.5 m/s)
Visibility: 10 or more miles (16+ km)
Ceiling: at least 12,000 feet AGL
Clouds: sky clear below 12,000 feet AGL
Weather: no significant weather observed at this time

METAR text: PANC 141753Z 36007KT 10SM CLR M11/M17 A3005 RMK AO2 SLP180 4/015 T11061172 11083 21106 51008
Conditions at: PANC (ANCHORAGE INTL , AK, US) observed 1753 UTC 14 February 2019
Temperature: -10.6°C (13°F)
Dewpoint: -17.2°C ( 1°F) [RH = 58%]
Pressure (altimeter): 30.05 inches Hg (1017.7 mb)
[Sea-level pressure: 1018.0 mb]
Winds: from the N (360 degrees) at 8 MPH (7 knots; 3.6 m/s)
Visibility: 10 or more miles (16+ km)
Ceiling: at least 12,000 feet AGL
Clouds: sky clear below 12,000 feet AGL
Weather: no significant weather observed at this time

METAR text: PANC 141653Z 35014G24KT 10SM CLR M09/M17 A3004 RMK AO2 SLP175 T10891172
Conditions at: PANC (ANCHORAGE INTL , AK, US) observed 1653 UTC 14 February 2019
Temperature: -8.9°C (16°F)
Dewpoint: -17.2°C ( 1°F) [RH = 51%]
Pressure (altimeter): 30.04 inches Hg (1017.4 mb)
[Sea-level pressure: 1017.5 mb]
Winds: from the N (350 degrees) at 16 MPH (14 knots; 7.2 m/s)
gusting to 28 MPH (24 knots; 12.3 m/s)
Visibility: 10 or more miles (16+ km)
Ceiling: at least 12,000 feet AGL
Clouds: sky clear below 12,000 feet AGL
Weather: no significant weather observed at this time

METAR text: PANC 141553Z 35016G23KT 10SM CLR M09/M17 A3004 RMK AO2 SLP177 T10891167
Conditions at: PANC (ANCHORAGE INTL , AK, US) observed 1553 UTC 14 February 2019
Temperature: -8.9°C (16°F)
Dewpoint: -16.7°C ( 2°F) [RH = 53%]
Pressure (altimeter): 30.04 inches Hg (1017.4 mb)
[Sea-level pressure: 1017.7 mb]
Winds: from the N (350 degrees) at 18 MPH (16 knots; 8.2 m/s)
gusting to 26 MPH (23 knots; 11.8 m/s)
Visibility: 10 or more miles (16+ km)
Ceiling: at least 12,000 feet AGL
Clouds: sky clear below 12,000 feet AGL
Weather: no significant weather observed at this time

METAR text: PANC 141453Z 36016G22KT 10SM CLR M08/M17 A3003 RMK AO2 SLP171 T10831172 58001
Conditions at: PANC (ANCHORAGE INTL , AK, US) observed 1453 UTC 14 February 2019
Temperature: -8.3°C (17°F)
Dewpoint: -17.2°C ( 1°F) [RH = 49%]
Pressure (altimeter): 30.03 inches Hg (1017.0 mb)
[Sea-level pressure: 1017.1 mb]
Winds: from the N (360 degrees) at 18 MPH (16 knots; 8.2 m/s)
gusting to 25 MPH (22 knots; 11.3 m/s)
Visibility: 10 or more miles (16+ km)
Ceiling: at least 12,000 feet AGL
Clouds: sky clear below 12,000 feet AGL
Weather: no significant weather observed at this time

METAR text: PANC 141353Z 36016G23KT 10SM CLR M09/M17 A3003 RMK AO2 SLP173 T10891167
Conditions at: PANC (ANCHORAGE INTL , AK, US) observed 1353 UTC 14 February 2019
Temperature: -8.9°C (16°F)
Dewpoint: -16.7°C ( 2°F) [RH = 53%]
Pressure (altimeter): 30.03 inches Hg (1017.0 mb)
[Sea-level pressure: 1017.3 mb]
Winds: from the N (360 degrees) at 18 MPH (16 knots; 8.2 m/s)
gusting to 26 MPH (23 knots; 11.8 m/s)
Visibility: 10 or more miles (16+ km)
Ceiling: at least 12,000 feet AGL
Clouds: sky clear below 12,000 feet AGL
Weather: no significant weather observed at this time

METAR text: PANC 141253Z 35012KT 10SM CLR M09/M16 A3003 RMK AO2 SLP173 T10941161
Conditions at: PANC (ANCHORAGE INTL , AK, US) observed 1253 UTC 14 February 2019
Temperature: -9.4°C (15°F)
Dewpoint: -16.1°C ( 3°F) [RH = 58%]
Pressure (altimeter): 30.03 inches Hg (1017.0 mb)
[Sea-level pressure: 1017.3 mb]
Winds: from the N (350 degrees) at 14 MPH (12 knots; 6.2 m/s)
Visibility: 10 or more miles (16+ km)
Ceiling: at least 12,000 feet AGL
Clouds: sky clear below 12,000 feet AGL
Weather: no significant weather observed at this time

METAR text: PANC 141153Z 36013G20KT 10SM CLR M09/M16 A3003 RMK AO2 SLP172 4/015 T10891161 11072 21094 51009
Conditions at: PANC (ANCHORAGE INTL , AK, US) observed 1153 UTC 14 February 2019
Temperature: -8.9°C (16°F)
Dewpoint: -16.1°C ( 3°F) [RH = 56%]
Pressure (altimeter): 30.03 inches Hg (1017.0 mb)
[Sea-level pressure: 1017.2 mb]
Winds: from the N (360 degrees) at 15 MPH (13 knots; 6.7 m/s)
gusting to 23 MPH (20 knots; 10.3 m/s)
Visibility: 10 or more miles (16+ km)
Ceiling: at least 12,000 feet AGL
Clouds: sky clear below 12,000 feet AGL
Weather: no significant weather observed at this time

METAR text: PANC 141053Z 35013KT 10SM CLR M08/M16 A3003 RMK AO2 SLP172 T10831161
Conditions at: PANC (ANCHORAGE INTL , AK, US) observed 1053 UTC 14 February 2019
Temperature: -8.3°C (17°F)
Dewpoint: -16.1°C ( 3°F) [RH = 53%]
Pressure (altimeter): 30.03 inches Hg (1017.0 mb)
[Sea-level pressure: 1017.2 mb]
Winds: from the N (350 degrees) at 15 MPH (13 knots; 6.7 m/s)
Visibility: 10 or more miles (16+ km)
Ceiling: at least 12,000 feet AGL
Clouds: sky clear below 12,000 feet AGL
Weather: no significant weather observed at this time

Forecast for: PANC (ANCHORAGE INTL , AK, US)
Text: PANC 151734Z 1518/1624 VRB05KT P6SM FEW100 SCT200
Forecast period: 1800 UTC 15 February 2019 to 1800 UTC 16 February 2019
Forecast type: FROM: standard forecast or significant change
Winds: variable direction winds at 6 MPH (5 knots; 2.6 m/s)
Visibility: 6 or more miles 10+ km)
Ceiling: at least 12,000 feet AGL
Clouds: few clouds at 10000 feet AGL
scattered clouds at 20000 feet AGL
Weather: no significant weather forecast for this period
Text: FM161800 04004KT 5SM -SN BR BKN030
Forecast period: 1800 UTC 16 February 2019 to 0000 UTC 17 February 2019
Forecast type: FROM: standard forecast or significant change
Winds: from the NE (40 degrees) at 5 MPH (4 knots; 2.1 m/s)
Visibility: 5 miles (8 km)
Ceiling: 3000 feet AGL
Clouds: broken clouds at 3000 feet AGL
Weather: -SN BR  (light snow, mist)